Pintail — WDF5177 — position and weather

sailwx.info

Track history (hours):
 
Tides and Currents Weather Stations Pressure Air Temp Water Temp Dewpoint Dewpoint Depression Visibility Wind Speed Wind Dir Waves Ship Positions

Pintail

Owner: Pintail Marine Services, Inc, Friday Harbor, WA. More information available from US FCC via Universal Licensing System and Coast Guard Vessel Documentation Center.

Last reported at 2015-Sep-02 12:33 UTC. Time now 2015-Sep-02 12:51 UTC.
Position N 48°32' W 122°60'.

Length 19 m.

Type: Towing. MMSI: 367460260.

Date/timePositionNaut miles runAvg speedWind from/ knotsBaromVisibWave heightAir tempDewpointWater temp
2015-Sep-02 12:33N 48°32' W 122°60'0 0.0
2015-Sep-02 11:32N 48°32' W 122°60'0 0.0
2015-Sep-02 10:31N 48°32' W 122°60'0 0.0
2015-Sep-02 09:33N 48°32' W 122°60'0 0.0
2015-Sep-02 08:31N 48°32' W 122°60'0 0.0
2015-Sep-02 07:30N 48°32' W 122°60'0 0.0
2015-Sep-02 06:33N 48°32' W 122°60'0 0.0
2015-Sep-02 05:33N 48°32' W 122°60'0 0.0
2015-Sep-02 04:33N 48°32' W 122°60'0 0.0
2015-Sep-02 03:33N 48°32' W 122°60'0 0.0
2015-Sep-02 02:32N 48°32' W 122°60'0 0.0
2015-Sep-02 01:33N 48°32' W 122°60'0 0.0
2015-Sep-02 00:30N 48°32' W 122°60'0 0.0
2015-Sep-01 23:30N 48°32' W 122°60'0 0.0
2015-Sep-01 22:33N 48°32' W 122°60'0 0.0
2015-Sep-01 21:31N 48°32' W 122°60'1 0.1
2015-Sep-01 15:20N 48°33' W 122°60'1 1.2
2015-Sep-01 14:34N 48°32' W 122°60'0 0.0
2015-Sep-01 13:31N 48°32' W 122°60'0 0.0
2015-Sep-01 12:34N 48°32' W 122°60'0 0.0
2015-Sep-01 11:31N 48°32' W 122°60'0 0.0
2015-Sep-01 10:31N 48°32' W 122°60'0 0.0
2015-Sep-01 09:22N 48°32' W 122°60'0 0.0
2015-Sep-01 08:31N 48°32' W 122°60'0 0.0
2015-Sep-01 07:31N 48°32' W 122°60'0 0.0
2015-Sep-01 06:31N 48°32' W 122°60'0 0.0
2015-Sep-01 05:25N 48°32' W 122°60'0 0.0
2015-Sep-01 04:25N 48°32' W 122°60'0 0.0
2015-Sep-01 03:31N 48°32' W 122°60'0 0.0
2015-Sep-01 02:31N 48°32' W 122°60'0 0.0
2015-Sep-01 01:31N 48°32' W 122°60'0 0.0
2015-Sep-01 00:31N 48°32' W 122°60'0 0.0
2015-Aug-31 23:31N 48°32' W 122°60'0 0.0
2015-Aug-31 22:31N 48°32' W 122°60'0 0.0
2015-Aug-31 21:31N 48°32' W 122°60'0 0.0
2015-Aug-31 20:32N 48°32' W 122°60'5 5.3
2015-Aug-31 19:33N 48°34' W 122°53'2 0.5
2015-Aug-31 15:21N 48°33' W 122°51'4 5.0
2015-Aug-31 14:34N 48°33' W 122°57'3 2.3
2015-Aug-31 13:28N 48°32' W 122°60'0 0.0
2015-Aug-31 12:32N 48°32' W 122°60'0 0.0
2015-Aug-31 11:31N 48°32' W 122°60'0 0.0
2015-Aug-31 10:21N 48°32' W 122°60'0 0.0
2015-Aug-31 09:31N 48°32' W 122°60'0 0.0
2015-Aug-31 08:30N 48°32' W 122°60'0 0.0
2015-Aug-31 07:31N 48°32' W 122°60'0 0.0
2015-Aug-31 06:33N 48°32' W 122°60'0 0.0
2015-Aug-31 05:31N 48°32' W 122°60'0 0.0
2015-Aug-31 04:30N 48°32' W 122°60'0 0.0
2015-Aug-31 03:31N 48°32' W 122°60'0 0.0
2015-Aug-31 02:31N 48°32' W 122°60'0 0.0
2015-Aug-31 01:28N 48°32' W 122°60'0 0.0
2015-Aug-31 00:31N 48°32' W 122°60'0 0.0
2015-Aug-30 23:31N 48°32' W 122°60'0 0.0
2015-Aug-30 22:31N 48°32' W 122°60'0 0.0
2015-Aug-30 21:32N 48°32' W 122°60'0 0.0
2015-Aug-30 20:28N 48°32' W 122°60'0 0.0
2015-Aug-30 19:31N 48°32' W 122°60'0 0.0
2015-Aug-30 18:28N 48°32' W 122°60'0 0.0
2015-Aug-30 17:31N 48°32' W 122°60'0 0.0
2015-Aug-30 16:31N 48°32' W 122°60'0 0.0
2015-Aug-30 15:31N 48°32' W 122°60'0 0.0
2015-Aug-30 14:31N 48°32' W 122°60'0 0.0
2015-Aug-30 13:31N 48°32' W 122°60'0 0.0
2015-Aug-30 12:31N 48°32' W 122°60'0 0.0
2015-Aug-30 11:31N 48°32' W 122°60'0 0.0
2015-Aug-30 10:31N 48°32' W 122°60'0 0.0
2015-Aug-30 09:31N 48°32' W 122°60'0 0.0
2015-Aug-30 08:31N 48°32' W 122°60'0 0.0
2015-Aug-30 07:31N 48°32' W 122°60'0 0.0
2015-Aug-30 06:31N 48°32' W 122°60'0 0.0
2015-Aug-30 05:32N 48°32' W 122°60'0 0.0
2015-Aug-30 04:19N 48°32' W 122°60'0 0.0
2015-Aug-30 03:31N 48°32' W 122°60'0 0.0
2015-Aug-30 02:32N 48°32' W 122°60'0 0.0
2015-Aug-30 01:28N 48°32' W 122°60'0 0.0
2015-Aug-30 00:28N 48°32' W 122°60'0 0.0
2015-Aug-29 23:28N 48°32' W 122°60'0 0.0
2015-Aug-29 22:28N 48°32' W 122°60'0 0.0
2015-Aug-29 21:31N 48°32' W 122°60'0 0.0
2015-Aug-29 20:25N 48°32' W 122°60'0 0.0
2015-Aug-29 19:23N 48°32' W 122°60'0 0.0
2015-Aug-29 18:32N 48°32' W 122°60'0 0.0
2015-Aug-29 17:28N 48°32' W 122°60'0 0.0
2015-Aug-29 16:33N 48°32' W 122°60'0 0.0
2015-Aug-29 15:33N 48°32' W 122°60'0 0.0
2015-Aug-29 14:34N 48°32' W 122°60'0 0.0
2015-Aug-29 13:31N 48°32' W 122°60'0 0.0
2015-Aug-29 12:31N 48°32' W 122°60'0 0.0
2015-Aug-29 11:31N 48°32' W 122°60'0 0.0
2015-Aug-29 10:34N 48°32' W 122°60'0 0.0
2015-Aug-29 09:31N 48°32' W 122°60'0 0.0
2015-Aug-29 08:31N 48°32' W 122°60'0 0.0
2015-Aug-29 07:31N 48°32' W 122°60'0 0.0
2015-Aug-29 06:28N 48°32' W 122°60'0 0.0
2015-Aug-29 05:31N 48°32' W 122°60'0 0.0
2015-Aug-29 04:31N 48°32' W 122°60'0 0.0
2015-Aug-29 03:31N 48°32' W 122°60'0 0.0
2015-Aug-29 02:33N 48°32' W 122°60'0 0.0
2015-Aug-29 01:31N 48°32' W 122°60'0 0.0
2015-Aug-29 00:31N 48°32' W 122°60'0 0.0
2015-Aug-28 23:31N 48°32' W 122°60'0 0.0
2015-Aug-28 22:31N 48°32' W 122°60'0 0.0
2015-Aug-28 21:31N 48°32' W 122°60'0 0.1
2015-Aug-28 20:31N 48°32' W 123°00'4 4.5
2015-Aug-28 19:32N 48°34' W 122°54'11 5.6
2015-Aug-28 17:33N 48°31' W 122°38'8 3.7
2015-Aug-28 15:24N 48°33' W 122°49'5 5.4
2015-Aug-28 14:33N 48°33' W 122°56'3 2.6
2015-Aug-28 13:31N 48°32' W 122°60'0 0.0
2015-Aug-28 12:31N 48°32' W 122°60'0 0.0
2015-Aug-28 11:31N 48°32' W 122°60'0 0.0
2015-Aug-28 10:25N 48°32' W 122°60'0 0.0
2015-Aug-28 09:28N 48°32' W 122°60'0 0.0
2015-Aug-28 08:31N 48°32' W 122°60'0 0.0
2015-Aug-28 07:20N 48°32' W 122°60'0 0.0
2015-Aug-28 06:19N 48°32' W 122°60'0 0.0
2015-Aug-28 05:31N 48°32' W 122°60'0 0.0
2015-Aug-28 04:32N 48°32' W 122°60'0 0.0
2015-Aug-28 03:31N 48°32' W 122°60'0 0.0
2015-Aug-28 02:31N 48°32' W 122°60'0 0.0
2015-Aug-28 01:31N 48°32' W 122°60'0 0.0
2015-Aug-28 00:32N 48°32' W 122°60'0 0.0
2015-Aug-27 23:31N 48°32' W 122°60'0 0.0
2015-Aug-27 22:32N 48°32' W 122°60'0 0.0
2015-Aug-27 21:26N 48°32' W 122°60'0 0.1
2015-Aug-27 19:33N 48°32' W 123°00'0 0.1
2015-Aug-27 18:22N 48°32' W 122°60'0 0.0
2015-Aug-27 11:31N 48°32' W 122°60'0 0.0
2015-Aug-27 07:04N 48°32' W 122°60'0 0.0
2015-Aug-27 06:33N 48°32' W 122°60'0 0.0
2015-Aug-27 05:19N 48°32' W 122°60'0 0.0
2015-Aug-27 04:27N 48°32' W 122°60'0 0.0
2015-Aug-27 03:31N 48°32' W 122°60'0 0.0
2015-Aug-27 02:28N 48°32' W 122°60'0 0.0
2015-Aug-27 01:31N 48°32' W 122°60'0 0.0
2015-Aug-27 00:28N 48°32' W 122°60'0 0.0
2015-Aug-26 23:31N 48°32' W 122°60'0 0.0
2015-Aug-26 22:25N 48°32' W 122°60'0 0.0
2015-Aug-26 21:13N 48°32' W 122°60'0 0.1
2015-Aug-26 20:31N 48°32' W 123°00'5 5.4
2015-Aug-26 19:33N 48°34' W 122°53'11 5.5
2015-Aug-26 17:31N 48°31' W 122°37'3 2.8
2015-Aug-26 16:29N 48°32' W 122°41'6 6.1
2015-Aug-26 15:32N 48°33' W 122°50'6 5.6
2015-Aug-26 14:33N 48°32' W 122°58'1 1.4
2015-Aug-26 13:31N 48°32' W 122°60'0 0.0
2015-Aug-26 12:31N 48°32' W 122°60'0 0.0
2015-Aug-26 11:31N 48°32' W 122°60'0 0.0
2015-Aug-26 10:31N 48°32' W 122°60'0 0.0
2015-Aug-26 09:31N 48°32' W 122°60'0 0.0
2015-Aug-26 07:06N 48°32' W 122°60'0 0.0
2015-Aug-26 06:32N 48°32' W 122°60'0 0.0
2015-Aug-26 05:32N 48°32' W 122°60'0 0.0
2015-Aug-26 04:33N 48°32' W 122°60'0 0.0
2015-Aug-26 03:32N 48°32' W 122°60'0 0.0
2015-Aug-26 02:31N 48°32' W 122°60'0 0.0
2015-Aug-26 01:31N 48°32' W 122°60'0 0.0
2015-Aug-26 00:31N 48°32' W 122°60'0 0.0
2015-Aug-25 23:31N 48°32' W 122°60'0 0.0
2015-Aug-25 22:31N 48°32' W 122°60'0 0.0
2015-Aug-25 21:31N 48°32' W 122°60'0 0.0
2015-Aug-25 20:31N 48°32' W 122°60'0 0.0
2015-Aug-25 19:32N 48°32' W 122°60'0 0.0
2015-Aug-25 18:22N 48°32' W 122°60'0 0.0
2015-Aug-25 17:31N 48°32' W 122°60'0 0.0
2015-Aug-25 16:31N 48°32' W 122°60'0 0.0
2015-Aug-25 15:32N 48°32' W 122°60'0 0.0
2015-Aug-25 14:31N 48°32' W 122°60'0 0.0
2015-Aug-25 13:31N 48°32' W 122°60'0 0.0
2015-Aug-25 12:31N 48°32' W 122°60'0 0.0
2015-Aug-25 11:31N 48°32' W 122°60'0 0.0
2015-Aug-25 10:31N 48°32' W 122°60'0 0.0
2015-Aug-25 09:32N 48°32' W 122°60'0 0.0
2015-Aug-25 08:26N 48°32' W 122°60'0 0.0
2015-Aug-25 07:31N 48°32' W 122°60'0 0.0
2015-Aug-25 06:31N 48°32' W 122°60'0 0.0
2015-Aug-25 05:31N 48°32' W 122°60'0 0.0
2015-Aug-25 04:31N 48°32' W 122°60'0 0.0
2015-Aug-25 03:31N 48°32' W 122°60'0 0.0
2015-Aug-25 02:32N 48°32' W 122°60'0 0.0
2015-Aug-25 01:32N 48°32' W 122°60'0 0.0
2015-Aug-25 00:25N 48°32' W 122°60'0 0.0
2015-Aug-24 23:31N 48°32' W 122°60'0 0.0
2015-Aug-24 22:31N 48°32' W 122°60'0 0.0
2015-Aug-24 21:31N 48°32' W 122°60'0 0.1
2015-Aug-24 20:32N 48°32' W 123°00'5 5.0
2015-Aug-24 19:33N 48°34' W 122°54'11 5.7
2015-Aug-24 17:33N 48°31' W 122°37'9 4.2
2015-Aug-24 15:32N 48°33' W 122°50'5 5.5
2015-Aug-24 14:33N 48°33' W 122°58'2 1.5
2015-Aug-24 13:32N 48°32' W 122°60'0 0.0
2015-Aug-24 12:29N 48°32' W 122°60'0 0.0
2015-Aug-24 11:32N 48°32' W 122°60'0 0.0
2015-Aug-24 10:27N 48°32' W 122°60'0 0.0
2015-Aug-24 09:33N 48°32' W 122°60'0 0.0
2015-Aug-24 08:30N 48°32' W 122°60'0 0.0
2015-Aug-24 07:32N 48°32' W 122°60'0 0.0
2015-Aug-24 06:29N 48°32' W 122°60'0 0.0
2015-Aug-24 05:29N 48°32' W 122°60'0 0.0
2015-Aug-24 04:29N 48°32' W 122°60'0 0.0
2015-Aug-24 03:31N 48°32' W 122°60'0 0.0
2015-Aug-24 02:28N 48°32' W 122°60'0 0.0
2015-Aug-24 01:28N 48°32' W 122°60'0 0.0
2015-Aug-24 00:28N 48°32' W 122°60'0 0.0
2015-Aug-23 23:28N 48°32' W 122°60'0 0.0
2015-Aug-23 22:31N 48°32' W 122°60'0 0.0
2015-Aug-23 21:31N 48°32' W 122°60'0 0.0
2015-Aug-23 20:31N 48°32' W 122°60'0 0.0
2015-Aug-23 19:32N 48°32' W 122°60'0 0.0
2015-Aug-23 18:32N 48°32' W 122°60'0 0.0
2015-Aug-23 17:31N 48°32' W 122°60'0 0.0
2015-Aug-23 16:28N 48°32' W 122°60'0 0.0
2015-Aug-23 15:30N 48°32' W 122°60'0 0.0
2015-Aug-23 14:33N 48°32' W 122°60'0 0.0
2015-Aug-23 13:31N 48°32' W 122°60'  
Track history (hours):
 
Tides and Currents Weather Stations Pressure Air Temp Water Temp Dewpoint Dewpoint Depression Visibility Wind Speed Wind Dir Waves Ship Positions

Pintail

Owner: Pintail Marine Services, Inc, Friday Harbor, WA. More information available from US FCC via Universal Licensing System and Coast Guard Vessel Documentation Center.

Last reported at 2015-Sep-02 12:33 UTC. Time now 2015-Sep-02 12:51 UTC.
Position N 48°32' W 122°60'.

Length 19 m.

Type: Towing. MMSI: 367460260.

Date/timePositionNaut miles runAvg speedWind from/ knotsBaromVisibWave heightAir tempDewpointWater temp
2015-Sep-02 12:33N 48°32' W 122°60'0 0.0
2015-Sep-02 11:32N 48°32' W 122°60'0 0.0
2015-Sep-02 10:31N 48°32' W 122°60'0 0.0
2015-Sep-02 09:33N 48°32' W 122°60'0 0.0
2015-Sep-02 08:31N 48°32' W 122°60'0 0.0
2015-Sep-02 07:30N 48°32' W 122°60'0 0.0
2015-Sep-02 06:33N 48°32' W 122°60'0 0.0
2015-Sep-02 05:33N 48°32' W 122°60'0 0.0
2015-Sep-02 04:33N 48°32' W 122°60'0 0.0
2015-Sep-02 03:33N 48°32' W 122°60'0 0.0
2015-Sep-02 02:32N 48°32' W 122°60'0 0.0
2015-Sep-02 01:33N 48°32' W 122°60'0 0.0
2015-Sep-02 00:30N 48°32' W 122°60'0 0.0
2015-Sep-01 23:30N 48°32' W 122°60'0 0.0
2015-Sep-01 22:33N 48°32' W 122°60'0 0.0
2015-Sep-01 21:31N 48°32' W 122°60'1 0.1
2015-Sep-01 15:20N 48°33' W 122°60'1 1.2
2015-Sep-01 14:34N 48°32' W 122°60'0 0.0
2015-Sep-01 13:31N 48°32' W 122°60'0 0.0
2015-Sep-01 12:34N 48°32' W 122°60'0 0.0
2015-Sep-01 11:31N 48°32' W 122°60'0 0.0
2015-Sep-01 10:31N 48°32' W 122°60'0 0.0
2015-Sep-01 09:22N 48°32' W 122°60'0 0.0
2015-Sep-01 08:31N 48°32' W 122°60'0 0.0
2015-Sep-01 07:31N 48°32' W 122°60'0 0.0
2015-Sep-01 06:31N 48°32' W 122°60'0 0.0
2015-Sep-01 05:25N 48°32' W 122°60'0 0.0
2015-Sep-01 04:25N 48°32' W 122°60'0 0.0
2015-Sep-01 03:31N 48°32' W 122°60'0 0.0
2015-Sep-01 02:31N 48°32' W 122°60'0 0.0
2015-Sep-01 01:31N 48°32' W 122°60'0 0.0
2015-Sep-01 00:31N 48°32' W 122°60'0 0.0
2015-Aug-31 23:31N 48°32' W 122°60'0 0.0
2015-Aug-31 22:31N 48°32' W 122°60'0 0.0
2015-Aug-31 21:31N 48°32' W 122°60'0 0.0
2015-Aug-31 20:32N 48°32' W 122°60'5 5.3
2015-Aug-31 19:33N 48°34' W 122°53'2 0.5
2015-Aug-31 15:21N 48°33' W 122°51'4 5.0
2015-Aug-31 14:34N 48°33' W 122°57'3 2.3
2015-Aug-31 13:28N 48°32' W 122°60'0 0.0
2015-Aug-31 12:32N 48°32' W 122°60'0 0.0
2015-Aug-31 11:31N 48°32' W 122°60'0 0.0
2015-Aug-31 10:21N 48°32' W 122°60'0 0.0
2015-Aug-31 09:31N 48°32' W 122°60'0 0.0
2015-Aug-31 08:30N 48°32' W 122°60'0 0.0
2015-Aug-31 07:31N 48°32' W 122°60'0 0.0
2015-Aug-31 06:33N 48°32' W 122°60'0 0.0
2015-Aug-31 05:31N 48°32' W 122°60'0 0.0
2015-Aug-31 04:30N 48°32' W 122°60'0 0.0
2015-Aug-31 03:31N 48°32' W 122°60'0 0.0
2015-Aug-31 02:31N 48°32' W 122°60'0 0.0
2015-Aug-31 01:28N 48°32' W 122°60'0 0.0
2015-Aug-31 00:31N 48°32' W 122°60'0 0.0
2015-Aug-30 23:31N 48°32' W 122°60'0 0.0
2015-Aug-30 22:31N 48°32' W 122°60'0 0.0
2015-Aug-30 21:32N 48°32' W 122°60'0 0.0
2015-Aug-30 20:28N 48°32' W 122°60'0 0.0
2015-Aug-30 19:31N 48°32' W 122°60'0 0.0
2015-Aug-30 18:28N 48°32' W 122°60'0 0.0
2015-Aug-30 17:31N 48°32' W 122°60'0 0.0
2015-Aug-30 16:31N 48°32' W 122°60'0 0.0
2015-Aug-30 15:31N 48°32' W 122°60'0 0.0
2015-Aug-30 14:31N 48°32' W 122°60'0 0.0
2015-Aug-30 13:31N 48°32' W 122°60'0 0.0
2015-Aug-30 12:31N 48°32' W 122°60'0 0.0
2015-Aug-30 11:31N 48°32' W 122°60'0 0.0
2015-Aug-30 10:31N 48°32' W 122°60'0 0.0
2015-Aug-30 09:31N 48°32' W 122°60'0 0.0
2015-Aug-30 08:31N 48°32' W 122°60'0 0.0
2015-Aug-30 07:31N 48°32' W 122°60'0 0.0
2015-Aug-30 06:31N 48°32' W 122°60'0 0.0
2015-Aug-30 05:32N 48°32' W 122°60'0 0.0
2015-Aug-30 04:19N 48°32' W 122°60'0 0.0
2015-Aug-30 03:31N 48°32' W 122°60'0 0.0
2015-Aug-30 02:32N 48°32' W 122°60'0 0.0
2015-Aug-30 01:28N 48°32' W 122°60'0 0.0
2015-Aug-30 00:28N 48°32' W 122°60'0 0.0
2015-Aug-29 23:28N 48°32' W 122°60'0 0.0
2015-Aug-29 22:28N 48°32' W 122°60'0 0.0
2015-Aug-29 21:31N 48°32' W 122°60'0 0.0
2015-Aug-29 20:25N 48°32' W 122°60'0 0.0
2015-Aug-29 19:23N 48°32' W 122°60'0 0.0
2015-Aug-29 18:32N 48°32' W 122°60'0 0.0
2015-Aug-29 17:28N 48°32' W 122°60'0 0.0
2015-Aug-29 16:33N 48°32' W 122°60'0 0.0
2015-Aug-29 15:33N 48°32' W 122°60'0 0.0
2015-Aug-29 14:34N 48°32' W 122°60'0 0.0
2015-Aug-29 13:31N 48°32' W 122°60'0 0.0
2015-Aug-29 12:31N 48°32' W 122°60'0 0.0
2015-Aug-29 11:31N 48°32' W 122°60'0 0.0
2015-Aug-29 10:34N 48°32' W 122°60'0 0.0
2015-Aug-29 09:31N 48°32' W 122°60'0 0.0
2015-Aug-29 08:31N 48°32' W 122°60'0 0.0
2015-Aug-29 07:31N 48°32' W 122°60'0 0.0
2015-Aug-29 06:28N 48°32' W 122°60'0 0.0
2015-Aug-29 05:31N 48°32' W 122°60'0 0.0
2015-Aug-29 04:31N 48°32' W 122°60'0 0.0
2015-Aug-29 03:31N 48°32' W 122°60'0 0.0
2015-Aug-29 02:33N 48°32' W 122°60'0 0.0
2015-Aug-29 01:31N 48°32' W 122°60'0 0.0
2015-Aug-29 00:31N 48°32' W 122°60'0 0.0
2015-Aug-28 23:31N 48°32' W 122°60'0 0.0
2015-Aug-28 22:31N 48°32' W 122°60'0 0.0
2015-Aug-28 21:31N 48°32' W 122°60'0 0.1
2015-Aug-28 20:31N 48°32' W 123°00'4 4.5
2015-Aug-28 19:32N 48°34' W 122°54'11 5.6
2015-Aug-28 17:33N 48°31' W 122°38'8 3.7
2015-Aug-28 15:24N 48°33' W 122°49'5 5.4
2015-Aug-28 14:33N 48°33' W 122°56'3 2.6
2015-Aug-28 13:31N 48°32' W 122°60'0 0.0
2015-Aug-28 12:31N 48°32' W 122°60'0 0.0
2015-Aug-28 11:31N 48°32' W 122°60'0 0.0
2015-Aug-28 10:25N 48°32' W 122°60'0 0.0
2015-Aug-28 09:28N 48°32' W 122°60'0 0.0
2015-Aug-28 08:31N 48°32' W 122°60'0 0.0
2015-Aug-28 07:20N 48°32' W 122°60'0 0.0
2015-Aug-28 06:19N 48°32' W 122°60'0 0.0
2015-Aug-28 05:31N 48°32' W 122°60'0 0.0
2015-Aug-28 04:32N 48°32' W 122°60'0 0.0
2015-Aug-28 03:31N 48°32' W 122°60'0 0.0
2015-Aug-28 02:31N 48°32' W 122°60'0 0.0
2015-Aug-28 01:31N 48°32' W 122°60'0 0.0
2015-Aug-28 00:32N 48°32' W 122°60'0 0.0
2015-Aug-27 23:31N 48°32' W 122°60'0 0.0
2015-Aug-27 22:32N 48°32' W 122°60'0 0.0
2015-Aug-27 21:26N 48°32' W 122°60'0 0.1
2015-Aug-27 19:33N 48°32' W 123°00'0 0.1
2015-Aug-27 18:22N 48°32' W 122°60'0 0.0
2015-Aug-27 11:31N 48°32' W 122°60'0 0.0
2015-Aug-27 07:04N 48°32' W 122°60'0 0.0
2015-Aug-27 06:33N 48°32' W 122°60'0 0.0
2015-Aug-27 05:19N 48°32' W 122°60'0 0.0
2015-Aug-27 04:27N 48°32' W 122°60'0 0.0
2015-Aug-27 03:31N 48°32' W 122°60'0 0.0
2015-Aug-27 02:28N 48°32' W 122°60'0 0.0
2015-Aug-27 01:31N 48°32' W 122°60'0 0.0
2015-Aug-27 00:28N 48°32' W 122°60'0 0.0
2015-Aug-26 23:31N 48°32' W 122°60'0 0.0
2015-Aug-26 22:25N 48°32' W 122°60'0 0.0
2015-Aug-26 21:13N 48°32' W 122°60'0 0.1
2015-Aug-26 20:31N 48°32' W 123°00'5 5.4
2015-Aug-26 19:33N 48°34' W 122°53'11 5.5
2015-Aug-26 17:31N 48°31' W 122°37'3 2.8
2015-Aug-26 16:29N 48°32' W 122°41'6 6.1
2015-Aug-26 15:32N 48°33' W 122°50'6 5.6
2015-Aug-26 14:33N 48°32' W 122°58'1 1.4
2015-Aug-26 13:31N 48°32' W 122°60'0 0.0
2015-Aug-26 12:31N 48°32' W 122°60'0 0.0
2015-Aug-26 11:31N 48°32' W 122°60'0 0.0
2015-Aug-26 10:31N 48°32' W 122°60'0 0.0
2015-Aug-26 09:31N 48°32' W 122°60'0 0.0
2015-Aug-26 07:06N 48°32' W 122°60'0 0.0
2015-Aug-26 06:32N 48°32' W 122°60'0 0.0
2015-Aug-26 05:32N 48°32' W 122°60'0 0.0
2015-Aug-26 04:33N 48°32' W 122°60'0 0.0
2015-Aug-26 03:32N 48°32' W 122°60'0 0.0
2015-Aug-26 02:31N 48°32' W 122°60'0 0.0
2015-Aug-26 01:31N 48°32' W 122°60'0 0.0
2015-Aug-26 00:31N 48°32' W 122°60'0 0.0
2015-Aug-25 23:31N 48°32' W 122°60'0 0.0
2015-Aug-25 22:31N 48°32' W 122°60'0 0.0
2015-Aug-25 21:31N 48°32' W 122°60'0 0.0
2015-Aug-25 20:31N 48°32' W 122°60'0 0.0
2015-Aug-25 19:32N 48°32' W 122°60'0 0.0
2015-Aug-25 18:22N 48°32' W 122°60'0 0.0
2015-Aug-25 17:31N 48°32' W 122°60'0 0.0
2015-Aug-25 16:31N 48°32' W 122°60'0 0.0
2015-Aug-25 15:32N 48°32' W 122°60'0 0.0
2015-Aug-25 14:31N 48°32' W 122°60'0 0.0
2015-Aug-25 13:31N 48°32' W 122°60'0 0.0
2015-Aug-25 12:31N 48°32' W 122°60'0 0.0
2015-Aug-25 11:31N 48°32' W 122°60'0 0.0
2015-Aug-25 10:31N 48°32' W 122°60'0 0.0
2015-Aug-25 09:32N 48°32' W 122°60'0 0.0
2015-Aug-25 08:26N 48°32' W 122°60'0 0.0
2015-Aug-25 07:31N 48°32' W 122°60'0 0.0
2015-Aug-25 06:31N 48°32' W 122°60'0 0.0
2015-Aug-25 05:31N 48°32' W 122°60'0 0.0
2015-Aug-25 04:31N 48°32' W 122°60'0 0.0
2015-Aug-25 03:31N 48°32' W 122°60'0 0.0
2015-Aug-25 02:32N 48°32' W 122°60'0 0.0
2015-Aug-25 01:32N 48°32' W 122°60'0 0.0
2015-Aug-25 00:25N 48°32' W 122°60'0 0.0
2015-Aug-24 23:31N 48°32' W 122°60'0 0.0
2015-Aug-24 22:31N 48°32' W 122°60'0 0.0
2015-Aug-24 21:31N 48°32' W 122°60'0 0.1
2015-Aug-24 20:32N 48°32' W 123°00'5 5.0
2015-Aug-24 19:33N 48°34' W 122°54'11 5.7
2015-Aug-24 17:33N 48°31' W 122°37'9 4.2
2015-Aug-24 15:32N 48°33' W 122°50'5 5.5
2015-Aug-24 14:33N 48°33' W 122°58'2 1.5
2015-Aug-24 13:32N 48°32' W 122°60'0 0.0
2015-Aug-24 12:29N 48°32' W 122°60'0 0.0
2015-Aug-24 11:32N 48°32' W 122°60'0 0.0
2015-Aug-24 10:27N 48°32' W 122°60'0 0.0
2015-Aug-24 09:33N 48°32' W 122°60'0 0.0
2015-Aug-24 08:30N 48°32' W 122°60'0 0.0
2015-Aug-24 07:32N 48°32' W 122°60'0 0.0
2015-Aug-24 06:29N 48°32' W 122°60'0 0.0
2015-Aug-24 05:29N 48°32' W 122°60'0 0.0
2015-Aug-24 04:29N 48°32' W 122°60'0 0.0
2015-Aug-24 03:31N 48°32' W 122°60'0 0.0
2015-Aug-24 02:28N 48°32' W 122°60'0 0.0
2015-Aug-24 01:28N 48°32' W 122°60'0 0.0
2015-Aug-24 00:28N 48°32' W 122°60'0 0.0
2015-Aug-23 23:28N 48°32' W 122°60'0 0.0
2015-Aug-23 22:31N 48°32' W 122°60'0 0.0
2015-Aug-23 21:31N 48°32' W 122°60'0 0.0
2015-Aug-23 20:31N 48°32' W 122°60'0 0.0
2015-Aug-23 19:32N 48°32' W 122°60'0 0.0
2015-Aug-23 18:32N 48°32' W 122°60'0 0.0
2015-Aug-23 17:31N 48°32' W 122°60'0 0.0
2015-Aug-23 16:28N 48°32' W 122°60'0 0.0
2015-Aug-23 15:30N 48°32' W 122°60'0 0.0
2015-Aug-23 14:33N 48°32' W 122°60'0 0.0
2015-Aug-23 13:31N 48°32' W 122°60'  

Dump ship's entire track history